TOURFACTS.DK  
Stats and Facts from Tour de France.

Tour de France 2017 starts in 38 days
  Riders   Stages   Teams   Summits   Yearly  


 
Search by year

 After:  2016 - Stage 21:   14626 starters.
  5086 different riders.
  632 teams.
  2211 stages.
  454 restdays.
  436049.60 km.
  5622 abandonnees.


Top 3
Christopher Froome89:04:48
Romain Bardet89:08:53
Nairo Quintana89:09:09
Rafal Majka209 pt.
Thomas De Gendt130 pt.
Jarlinson Pantano ..121 pt.
Peter Sagan470 pt.
Marcel Kittel228 pt.
Michael Matthews199 pt.
Adam Yates89:09:30
Louis Meintjes89:11:46
Emanuel Buchmann89:52:28
Facts from Tour de France 1938
  |   Stages.  |   Stage winners.  |   Days in yellow  |   Average speed.  |   Route.  |   Teams.  |   All riders.  |   Rookies.  |   Withdrawls.  |  

  |   GC.  |   Polka  |   Green  |   White  |   Summits. (In tour)  |   Summits. (Points)  |   Miscellaneous.  |  

Stage 16 on 23 - 07 - 1938
         Owning:    Gino Bartali    
Pick a stage:  1 2 3 4a 4b 4c 5 6a 6b 7 8 9 10a 10b 10c 11 12 13 14 15 16 17a 17b 18 19 20a 20b 20c 21
  Aix-les-BainsBesançon | Dist: 284.00 km.
Cat: Col de la FaucilleITAGino Bartali10 points 

Average speed for all riders in stage:  29,186 km./hr.
    Place:Name:Team:Time:Km/h:
BELMarcel KintBELBelgium09:39:56  +  00:00:00=29,383 
FRAYvan MarieFRACadets09:39:56  +  00:00:00=29,383 
BELAlbertin DisseauxBELBelgium09:39:56  +  00:00:00=29,383 
4 ITAOreste BernardoniFRABluets09:39:56  +  00:00:00=29,383 
5 CHEPaul EgliCHESwitzerland09:41:26  +  00:01:30=29,307 
6 BELSylvère MaesBELBelgium09:41:26  +  00:01:30=29,307 
7 LUXArsène MerschLUXLuxembourg09:41:26  +  00:01:30=29,307 
8 NLDAntoon Van SchendelNLDHolland09:41:26  +  00:01:30=29,307 
9 CHERaymond LouviotFRACadets09:41:26  +  00:01:30=29,307 
10 FRARobert TanneveauFRACadets09:41:26  +  00:01:30=29,307 
11 FRAFabien GalateauFRACadets09:41:26  +  00:01:30=29,307 
12 FRARobert OubronFRACadets09:41:26  +  00:01:30=29,307 
13 BELJules LowieBELBelgium09:41:26  +  00:01:30=29,307 
14 FRAPierre GallienFRAFrance09:41:26  +  00:01:30=29,307 
15 FRAJean-Marie GoasmatFRAFrance09:41:26  +  00:01:30=29,307 
16 FRAAndré LeducqFRACadets09:42:40  +  00:02:44=29,245 
17 LUXFrançois NeuensLUXLuxembourg09:42:57  +  00:03:01=29,231 
18 ITAAldo BiniITAItaly09:42:57  +  00:03:01=29,231 
19 ITAGlauco ServadeiITAItaly09:42:57  +  00:03:01=29,231 
20 ITANello TroggiITAItaly09:42:57  +  00:03:01=29,231 
21 NLDTheo MiddelkampNLDHolland09:42:57  +  00:03:01=29,231 
22 BELFrançois NeuvilleBELBelgium09:42:57  +  00:03:01=29,231 
23 FRAMathias ClemensLUXLuxembourg09:42:57  +  00:03:01=29,231 
24 ITAEnrico MolloITAItaly09:42:57  +  00:03:01=29,231 
25 ITAVasco BergamaschiITAItaly09:42:57  +  00:03:01=29,231 
26 ITAGino BartaliITAItaly09:42:57  +  00:03:01=29,231 
27 BELEdward VissersBELBelgium09:42:57  +  00:03:01=29,231 
28 FRAJean FontenayFRACadets09:42:57  +  00:03:01=29,231 
29 FRAGeorges NaisseFRAFrance09:42:57  +  00:03:01=29,231 
30 FRARaymond PassatFRACadets09:42:57  +  00:03:01=29,231 
31 BELFélicien VervaeckeBELBelgium09:42:57  +  00:03:01=29,231 
32 FRAAlbert BourlonFRABluets09:42:57  +  00:03:01=29,231 
33 ITADante GianelloFRABluets09:42:57  +  00:03:01=29,231 
34 NLDJanus HellemonsNLDHolland09:42:57  +  00:03:01=29,231 
35 ITAMario ViciniITAItaly09:42:57  +  00:03:01=29,231 
36 ESPRafael RamosESPSpain09:42:57  +  00:03:01=29,231 
37 DEUReinhold WendelDEUGermany09:42:57  +  00:03:01=29,231 
38 DEUJosef ArentsDEUGermany09:42:57  +  00:03:01=29,231 
39 DEUOtto WeckerlingDEUGermany09:42:57  +  00:03:01=29,231 
40 FRAAntonin MagneFRAFrance09:42:57  +  00:03:01=29,231 
41 ITAGiuseppe MartanoITAItaly09:42:57  +  00:03:01=29,231 
42 FRAJean FréchautFRAFrance09:42:57  +  00:03:01=29,231 
43 FRAPierre JaminetFRAFrance09:42:57  +  00:03:01=29,231 
44 ITAGiordano CotturITAItaly09:42:57  +  00:03:01=29,231 
45 ITALuigi IntrozziITAItaly09:42:57  +  00:03:01=29,231 
46 ESPJulián BerrenderoESPSpain09:42:57  +  00:03:01=29,231 
47 FRAVictor CossonFRAFrance09:42:57  +  00:03:01=29,231 
48 ESPMariano CañardoESPSpain09:42:57  +  00:03:01=29,231 
49 DEUHerbert HauswaldDEUGermany09:44:48  +  00:04:52=29,138 
50 FRALucien Le GuevelFRABluets09:48:10  +  00:08:14=28,971 
51 BELConstant LauwersBELBelgium09:48:55  +  00:08:59=28,934 
52 BELEmile Masson jr.BELBelgium09:48:55  +  00:08:59=28,934 
53 LUXJean MajerusLUXLuxembourg09:52:59  +  00:13:03=28,736 
54 FRACamille LeroyFRABluets09:52:59  +  00:13:03=28,736 
55 BELRene WalschotBELBelgium09:52:59  +  00:13:03=28,736 
56 CHEBruno CariniFRACadets10:12:20  +  00:32:24=27,828 


Todays birthdays.

1892  Alfred Steux
1899  Giovanni Grespan
1903  Jose Trueba
1914  Giordano Cottur
1920  Robert Castelin
1922  François Person
1931  John Kennedy
1931  Isaac Vitré
1940  Andre van Aert
1944  Jean-Claude Theilliere
1951  Roger Verschaeve
1955  Bernard Becaas
1967  Roberto Caruso
1969  Gianvito Martinelli
1974  Fabio Sacchi
1979  Giampaolo Cheula